sensor_id;sensor_type;location;lat;lon;timestamp;P1;durP1;ratioP1;P2;durP2;ratioP2
43152;SDS011;28756;49.064;9.290;2023-02-28T00:01:22;3.70;;;2.92;;
43152;SDS011;28756;49.064;9.290;2023-02-28T00:03:48;6.80;;;3.60;;
43152;SDS011;28756;49.064;9.290;2023-02-28T00:06:14;4.43;;;3.47;;
43152;SDS011;28756;49.064;9.290;2023-02-28T00:08:40;4.60;;;3.10;;
43152;SDS011;28756;49.064;9.290;2023-02-28T00:11:07;4.00;;;3.20;;
43152;SDS011;28756;49.064;9.290;2023-02-28T00:13:37;4.28;;;3.50;;
43152;SDS011;28756;49.064;9.290;2023-02-28T00:16:12;3.67;;;3.00;;
43152;SDS011;28756;49.064;9.290;2023-02-28T00:18:47;4.00;;;3.13;;
43152;SDS011;28756;49.064;9.290;2023-02-28T00:21:15;7.88;;;3.70;;
43152;SDS011;28756;49.064;9.290;2023-02-28T00:23:42;5.63;;;3.28;;
43152;SDS011;28756;49.064;9.290;2023-02-28T00:26:08;6.10;;;3.45;;
43152;SDS011;28756;49.064;9.290;2023-02-28T00:28:34;4.65;;;3.67;;
43152;SDS011;28756;49.064;9.290;2023-02-28T00:31:00;4.10;;;3.08;;
43152;SDS011;28756;49.064;9.290;2023-02-28T00:33:26;3.90;;;3.30;;
43152;SDS011;28756;49.064;9.290;2023-02-28T00:36:00;4.35;;;3.47;;
43152;SDS011;28756;49.064;9.290;2023-02-28T00:38:32;4.70;;;3.20;;
43152;SDS011;28756;49.064;9.290;2023-02-28T00:40:58;5.47;;;3.65;;
43152;SDS011;28756;49.064;9.290;2023-02-28T00:43:29;5.95;;;3.92;;
43152;SDS011;28756;49.064;9.290;2023-02-28T00:45:56;5.72;;;3.63;;
43152;SDS011;28756;49.064;9.290;2023-02-28T00:48:22;5.82;;;3.80;;
43152;SDS011;28756;49.064;9.290;2023-02-28T00:50:48;5.00;;;3.70;;
43152;SDS011;28756;49.064;9.290;2023-02-28T00:53:14;5.28;;;3.40;;
43152;SDS011;28756;49.064;9.290;2023-02-28T00:55:40;5.28;;;3.50;;
43152;SDS011;28756;49.064;9.290;2023-02-28T00:58:06;6.72;;;3.40;;
43152;SDS011;28756;49.064;9.290;2023-02-28T01:00:32;5.95;;;3.75;;
43152;SDS011;28756;49.064;9.290;2023-02-28T01:02:57;5.38;;;3.92;;
43152;SDS011;28756;49.064;9.290;2023-02-28T01:05:23;5.03;;;3.30;;
43152;SDS011;28756;49.064;9.290;2023-02-28T01:07:49;5.53;;;3.42;;
43152;SDS011;28756;49.064;9.290;2023-02-28T01:10:15;5.43;;;3.55;;
43152;SDS011;28756;49.064;9.290;2023-02-28T01:12:41;4.65;;;3.63;;
43152;SDS011;28756;49.064;9.290;2023-02-28T01:15:09;4.97;;;3.67;;
43152;SDS011;28756;49.064;9.290;2023-02-28T01:17:36;7.35;;;3.90;;
43152;SDS011;28756;49.064;9.290;2023-02-28T01:20:02;4.43;;;3.63;;
43152;SDS011;28756;49.064;9.290;2023-02-28T01:22:28;5.95;;;3.60;;
43152;SDS011;28756;49.064;9.290;2023-02-28T01:24:54;4.45;;;3.33;;
43152;SDS011;28756;49.064;9.290;2023-02-28T01:27:20;5.22;;;3.70;;
43152;SDS011;28756;49.064;9.290;2023-02-28T01:29:46;5.32;;;3.80;;
43152;SDS011;28756;49.064;9.290;2023-02-28T01:32:11;4.15;;;3.33;;
43152;SDS011;28756;49.064;9.290;2023-02-28T01:34:40;5.43;;;3.60;;
43152;SDS011;28756;49.064;9.290;2023-02-28T01:37:06;6.43;;;4.28;;
43152;SDS011;28756;49.064;9.290;2023-02-28T01:39:32;6.75;;;4.03;;
43152;SDS011;28756;49.064;9.290;2023-02-28T01:41:57;5.13;;;3.35;;
43152;SDS011;28756;49.064;9.290;2023-02-28T01:47:25;4.68;;;3.60;;
43152;SDS011;28756;49.064;9.290;2023-02-28T01:49:58;5.47;;;4.00;;
43152;SDS011;28756;49.064;9.290;2023-02-28T01:52:25;5.50;;;3.80;;
43152;SDS011;28756;49.064;9.290;2023-02-28T01:54:54;6.28;;;3.65;;
43152;SDS011;28756;49.064;9.290;2023-02-28T01:57:24;5.18;;;3.75;;
43152;SDS011;28756;49.064;9.290;2023-02-28T02:00:03;5.00;;;4.00;;
43152;SDS011;28756;49.064;9.290;2023-02-28T02:02:35;5.47;;;3.90;;
43152;SDS011;28756;49.064;9.290;2023-02-28T02:05:06;5.53;;;3.95;;
43152;SDS011;28756;49.064;9.290;2023-02-28T02:07:45;7.07;;;4.10;;
43152;SDS011;28756;49.064;9.290;2023-02-28T02:10:19;6.38;;;4.05;;
43152;SDS011;28756;49.064;9.290;2023-02-28T02:28:41;4.97;;;3.60;;
43152;SDS011;28756;49.064;9.290;2023-02-28T02:34:43;7.40;;;4.10;;
43152;SDS011;28756;49.064;9.290;2023-02-28T02:37:30;5.50;;;4.07;;
43152;SDS011;28756;49.064;9.290;2023-02-28T02:40:33;7.75;;;4.10;;
43152;SDS011;28756;49.064;9.290;2023-02-28T02:43:08;5.03;;;3.70;;
43152;SDS011;28756;49.064;9.290;2023-02-28T02:46:04;5.80;;;4.00;;
43152;SDS011;28756;49.064;9.290;2023-02-28T02:48:48;5.20;;;4.10;;
43152;SDS011;28756;49.064;9.290;2023-02-28T02:51:16;6.13;;;4.57;;
43152;SDS011;28756;49.064;9.290;2023-02-28T02:53:52;6.30;;;4.50;;
43152;SDS011;28756;49.064;9.290;2023-02-28T02:56:40;6.20;;;4.60;;
43152;SDS011;28756;49.064;9.290;2023-02-28T02:59:11;7.47;;;4.72;;
43152;SDS011;28756;49.064;9.290;2023-02-28T03:01:46;5.00;;;4.18;;
43152;SDS011;28756;49.064;9.290;2023-02-28T03:04:19;6.82;;;4.88;;
43152;SDS011;28756;49.064;9.290;2023-02-28T03:06:50;7.25;;;4.63;;
43152;SDS011;28756;49.064;9.290;2023-02-28T03:09:23;7.57;;;4.50;;
43152;SDS011;28756;49.064;9.290;2023-02-28T03:11:51;7.28;;;4.80;;
43152;SDS011;28756;49.064;9.290;2023-02-28T03:23:17;6.32;;;4.72;;
43152;SDS011;28756;49.064;9.290;2023-02-28T03:26:02;6.45;;;4.82;;
43152;SDS011;28756;49.064;9.290;2023-02-28T03:31:52;7.80;;;5.07;;
43152;SDS011;28756;49.064;9.290;2023-02-28T03:34:36;7.32;;;4.60;;
43152;SDS011;28756;49.064;9.290;2023-02-28T03:37:15;6.88;;;5.03;;
43152;SDS011;28756;49.064;9.290;2023-02-28T03:39:52;6.45;;;4.70;;
43152;SDS011;28756;49.064;9.290;2023-02-28T03:42:27;6.47;;;5.00;;
43152;SDS011;28756;49.064;9.290;2023-02-28T03:44:57;5.88;;;4.70;;
43152;SDS011;28756;49.064;9.290;2023-02-28T03:47:44;7.28;;;4.68;;
43152;SDS011;28756;49.064;9.290;2023-02-28T03:50:29;8.38;;;4.75;;
43152;SDS011;28756;49.064;9.290;2023-02-28T03:56:05;6.82;;;4.60;;
43152;SDS011;28756;49.064;9.290;2023-02-28T04:01:39;6.35;;;5.03;;
43152;SDS011;28756;49.064;9.290;2023-02-28T04:04:08;8.82;;;5.13;;
43152;SDS011;28756;49.064;9.290;2023-02-28T04:06:36;7.28;;;4.53;;
43152;SDS011;28756;49.064;9.290;2023-02-28T04:09:03;6.35;;;4.60;;
43152;SDS011;28756;49.064;9.290;2023-02-28T04:11:38;6.35;;;4.78;;
43152;SDS011;28756;49.064;9.290;2023-02-28T04:14:09;6.75;;;4.80;;
43152;SDS011;28756;49.064;9.290;2023-02-28T04:16:38;8.00;;;5.07;;
43152;SDS011;28756;49.064;9.290;2023-02-28T04:19:07;5.82;;;4.50;;
43152;SDS011;28756;49.064;9.290;2023-02-28T04:21:36;6.75;;;4.65;;
43152;SDS011;28756;49.064;9.290;2023-02-28T04:24:04;6.95;;;4.60;;
43152;SDS011;28756;49.064;9.290;2023-02-28T04:26:33;6.65;;;5.10;;
43152;SDS011;28756;49.064;9.290;2023-02-28T04:29:03;8.25;;;5.75;;
43152;SDS011;28756;49.064;9.290;2023-02-28T04:31:30;8.70;;;5.30;;
43152;SDS011;28756;49.064;9.290;2023-02-28T04:33:56;7.63;;;5.22;;
43152;SDS011;28756;49.064;9.290;2023-02-28T04:36:22;6.50;;;4.85;;
43152;SDS011;28756;49.064;9.290;2023-02-28T04:38:48;7.75;;;4.90;;
43152;SDS011;28756;49.064;9.290;2023-02-28T04:41:14;7.03;;;4.97;;
43152;SDS011;28756;49.064;9.290;2023-02-28T04:43:41;7.15;;;5.35;;
43152;SDS011;28756;49.064;9.290;2023-02-28T04:46:08;6.93;;;5.07;;
43152;SDS011;28756;49.064;9.290;2023-02-28T04:48:35;8.18;;;5.53;;
43152;SDS011;28756;49.064;9.290;2023-02-28T04:51:06;7.38;;;4.93;;
43152;SDS011;28756;49.064;9.290;2023-02-28T04:53:35;6.47;;;4.88;;
43152;SDS011;28756;49.064;9.290;2023-02-28T04:56:03;6.90;;;4.97;;
43152;SDS011;28756;49.064;9.290;2023-02-28T04:58:29;7.88;;;4.82;;
43152;SDS011;28756;49.064;9.290;2023-02-28T05:01:01;7.68;;;4.90;;
43152;SDS011;28756;49.064;9.290;2023-02-28T05:03:29;6.38;;;4.60;;
43152;SDS011;28756;49.064;9.290;2023-02-28T05:05:55;6.25;;;4.65;;
43152;SDS011;28756;49.064;9.290;2023-02-28T05:08:21;9.27;;;5.13;;
43152;SDS011;28756;49.064;9.290;2023-02-28T05:10:46;8.85;;;5.50;;
43152;SDS011;28756;49.064;9.290;2023-02-28T05:13:12;7.13;;;4.95;;
43152;SDS011;28756;49.064;9.290;2023-02-28T05:15:38;6.53;;;4.95;;
43152;SDS011;28756;49.064;9.290;2023-02-28T05:18:04;6.68;;;5.18;;
43152;SDS011;28756;49.064;9.290;2023-02-28T05:20:30;8.02;;;5.07;;
43152;SDS011;28756;49.064;9.290;2023-02-28T05:22:56;8.65;;;5.00;;
43152;SDS011;28756;49.064;9.290;2023-02-28T05:25:24;7.82;;;5.63;;
43152;SDS011;28756;49.064;9.290;2023-02-28T05:27:49;7.65;;;5.60;;
43152;SDS011;28756;49.064;9.290;2023-02-28T05:30:15;7.57;;;5.28;;
43152;SDS011;28756;49.064;9.290;2023-02-28T05:32:41;7.22;;;4.70;;
43152;SDS011;28756;49.064;9.290;2023-02-28T05:35:08;7.03;;;5.10;;
43152;SDS011;28756;49.064;9.290;2023-02-28T05:37:37;7.95;;;5.05;;
43152;SDS011;28756;49.064;9.290;2023-02-28T05:40:04;8.40;;;5.38;;
43152;SDS011;28756;49.064;9.290;2023-02-28T05:42:32;7.18;;;5.30;;
43152;SDS011;28756;49.064;9.290;2023-02-28T05:44:58;7.70;;;5.60;;
43152;SDS011;28756;49.064;9.290;2023-02-28T05:47:24;6.85;;;4.85;;
43152;SDS011;28756;49.064;9.290;2023-02-28T05:49:50;7.03;;;4.97;;
43152;SDS011;28756;49.064;9.290;2023-02-28T05:52:15;7.13;;;4.97;;
43152;SDS011;28756;49.064;9.290;2023-02-28T05:54:41;7.00;;;5.38;;
43152;SDS011;28756;49.064;9.290;2023-02-28T05:57:07;7.15;;;5.22;;
43152;SDS011;28756;49.064;9.290;2023-02-28T05:59:33;7.03;;;4.75;;
43152;SDS011;28756;49.064;9.290;2023-02-28T06:01:59;7.15;;;4.80;;
43152;SDS011;28756;49.064;9.290;2023-02-28T06:04:27;7.60;;;5.43;;
43152;SDS011;28756;49.064;9.290;2023-02-28T06:06:56;6.97;;;5.00;;
43152;SDS011;28756;49.064;9.290;2023-02-28T06:09:24;8.65;;;5.97;;
43152;SDS011;28756;49.064;9.290;2023-02-28T06:11:50;7.85;;;4.80;;
43152;SDS011;28756;49.064;9.290;2023-02-28T06:14:16;7.55;;;5.38;;
43152;SDS011;28756;49.064;9.290;2023-02-28T06:16:44;8.05;;;5.47;;
43152;SDS011;28756;49.064;9.290;2023-02-28T06:19:10;8.45;;;5.18;;
43152;SDS011;28756;49.064;9.290;2023-02-28T06:21:37;7.55;;;5.13;;
43152;SDS011;28756;49.064;9.290;2023-02-28T06:24:03;7.88;;;5.35;;
43152;SDS011;28756;49.064;9.290;2023-02-28T06:26:30;10.25;;;5.20;;
43152;SDS011;28756;49.064;9.290;2023-02-28T06:28:55;7.18;;;5.00;;
43152;SDS011;28756;49.064;9.290;2023-02-28T06:31:21;7.55;;;5.43;;
43152;SDS011;28756;49.064;9.290;2023-02-28T06:33:48;7.10;;;5.55;;
43152;SDS011;28756;49.064;9.290;2023-02-28T06:36:14;9.07;;;5.55;;
43152;SDS011;28756;49.064;9.290;2023-02-28T06:38:45;7.43;;;5.28;;
43152;SDS011;28756;49.064;9.290;2023-02-28T06:41:16;8.00;;;5.40;;
43152;SDS011;28756;49.064;9.290;2023-02-28T06:43:43;7.60;;;5.78;;
43152;SDS011;28756;49.064;9.290;2023-02-28T06:46:10;8.27;;;5.40;;
43152;SDS011;28756;49.064;9.290;2023-02-28T06:48:39;8.48;;;5.82;;
43152;SDS011;28756;49.064;9.290;2023-02-28T06:51:06;8.80;;;5.63;;
43152;SDS011;28756;49.064;9.290;2023-02-28T06:53:42;8.10;;;5.85;;
43152;SDS011;28756;49.064;9.290;2023-02-28T06:56:12;7.90;;;5.82;;
43152;SDS011;28756;49.064;9.290;2023-02-28T06:58:40;7.57;;;5.63;;
43152;SDS011;28756;49.064;9.290;2023-02-28T07:01:07;8.07;;;5.82;;
43152;SDS011;28756;49.064;9.290;2023-02-28T07:03:34;9.10;;;5.70;;
43152;SDS011;28756;49.064;9.290;2023-02-28T07:06:01;8.50;;;5.97;;
43152;SDS011;28756;49.064;9.290;2023-02-28T07:08:27;8.30;;;5.82;;
43152;SDS011;28756;49.064;9.290;2023-02-28T07:10:56;8.40;;;5.88;;
43152;SDS011;28756;49.064;9.290;2023-02-28T07:13:23;9.57;;;6.32;;
43152;SDS011;28756;49.064;9.290;2023-02-28T07:15:53;9.82;;;6.18;;
43152;SDS011;28756;49.064;9.290;2023-02-28T07:18:24;9.20;;;6.32;;
43152;SDS011;28756;49.064;9.290;2023-02-28T07:20:51;8.20;;;5.72;;
43152;SDS011;28756;49.064;9.290;2023-02-28T07:23:17;7.28;;;5.78;;
43152;SDS011;28756;49.064;9.290;2023-02-28T07:25:43;8.25;;;6.43;;
43152;SDS011;28756;49.064;9.290;2023-02-28T07:28:10;8.43;;;5.70;;
43152;SDS011;28756;49.064;9.290;2023-02-28T07:30:37;7.72;;;6.25;;
43152;SDS011;28756;49.064;9.290;2023-02-28T07:33:03;8.65;;;6.30;;
43152;SDS011;28756;49.064;9.290;2023-02-28T07:35:29;9.52;;;6.30;;
43152;SDS011;28756;49.064;9.290;2023-02-28T07:37:59;7.93;;;5.68;;
43152;SDS011;28756;49.064;9.290;2023-02-28T07:40:26;12.25;;;6.88;;
43152;SDS011;28756;49.064;9.290;2023-02-28T07:42:52;9.13;;;6.80;;
43152;SDS011;28756;49.064;9.290;2023-02-28T07:45:18;11.35;;;6.65;;
43152;SDS011;28756;49.064;9.290;2023-02-28T07:47:44;9.95;;;7.28;;
43152;SDS011;28756;49.064;9.290;2023-02-28T07:50:11;8.95;;;6.75;;
43152;SDS011;28756;49.064;9.290;2023-02-28T07:52:39;10.30;;;6.63;;
43152;SDS011;28756;49.064;9.290;2023-02-28T07:55:06;10.77;;;7.63;;
43152;SDS011;28756;49.064;9.290;2023-02-28T07:57:34;9.27;;;6.85;;
43152;SDS011;28756;49.064;9.290;2023-02-28T08:00:00;11.73;;;7.45;;
43152;SDS011;28756;49.064;9.290;2023-02-28T08:02:29;11.32;;;7.13;;
43152;SDS011;28756;49.064;9.290;2023-02-28T08:04:55;11.23;;;7.68;;
43152;SDS011;28756;49.064;9.290;2023-02-28T08:07:21;10.93;;;7.68;;
43152;SDS011;28756;49.064;9.290;2023-02-28T08:09:46;10.75;;;7.00;;
43152;SDS011;28756;49.064;9.290;2023-02-28T08:12:12;12.57;;;7.63;;
43152;SDS011;28756;49.064;9.290;2023-02-28T08:14:38;11.95;;;7.93;;
43152;SDS011;28756;49.064;9.290;2023-02-28T08:17:04;11.23;;;7.45;;
43152;SDS011;28756;49.064;9.290;2023-02-28T08:19:30;9.88;;;7.63;;
43152;SDS011;28756;49.064;9.290;2023-02-28T08:21:57;10.43;;;7.50;;
43152;SDS011;28756;49.064;9.290;2023-02-28T08:24:23;11.77;;;8.38;;
43152;SDS011;28756;49.064;9.290;2023-02-28T08:26:52;11.27;;;7.80;;
43152;SDS011;28756;49.064;9.290;2023-02-28T08:29:18;12.68;;;7.88;;
43152;SDS011;28756;49.064;9.290;2023-02-28T08:31:44;12.07;;;8.10;;
43152;SDS011;28756;49.064;9.290;2023-02-28T08:34:11;10.75;;;7.57;;
43152;SDS011;28756;49.064;9.290;2023-02-28T08:36:39;11.77;;;8.27;;
43152;SDS011;28756;49.064;9.290;2023-02-28T08:39:05;9.05;;;7.40;;
43152;SDS011;28756;49.064;9.290;2023-02-28T08:41:31;11.93;;;7.82;;
43152;SDS011;28756;49.064;9.290;2023-02-28T08:43:58;11.18;;;7.95;;
43152;SDS011;28756;49.064;9.290;2023-02-28T08:46:25;13.38;;;7.68;;
43152;SDS011;28756;49.064;9.290;2023-02-28T08:48:54;11.35;;;8.00;;
43152;SDS011;28756;49.064;9.290;2023-02-28T08:51:24;14.35;;;8.10;;
43152;SDS011;28756;49.064;9.290;2023-02-28T08:53:53;12.10;;;7.90;;
43152;SDS011;28756;49.064;9.290;2023-02-28T08:56:23;11.10;;;8.02;;
43152;SDS011;28756;49.064;9.290;2023-02-28T08:58:49;10.20;;;7.55;;
43152;SDS011;28756;49.064;9.290;2023-02-28T09:01:16;9.90;;;7.50;;
43152;SDS011;28756;49.064;9.290;2023-02-28T09:03:45;10.05;;;7.72;;
43152;SDS011;28756;49.064;9.290;2023-02-28T09:06:13;14.27;;;8.55;;
43152;SDS011;28756;49.064;9.290;2023-02-28T09:08:41;11.43;;;8.30;;
43152;SDS011;28756;49.064;9.290;2023-02-28T09:11:07;10.70;;;7.90;;
43152;SDS011;28756;49.064;9.290;2023-02-28T09:13:34;10.77;;;7.85;;
43152;SDS011;28756;49.064;9.290;2023-02-28T09:16:01;11.25;;;7.90;;
43152;SDS011;28756;49.064;9.290;2023-02-28T09:18:29;12.13;;;8.00;;
43152;SDS011;28756;49.064;9.290;2023-02-28T09:20:55;11.65;;;7.80;;
43152;SDS011;28756;49.064;9.290;2023-02-28T09:23:22;10.40;;;7.70;;
43152;SDS011;28756;49.064;9.290;2023-02-28T09:25:52;11.20;;;7.85;;
43152;SDS011;28756;49.064;9.290;2023-02-28T09:28:19;12.73;;;8.00;;
43152;SDS011;28756;49.064;9.290;2023-02-28T09:30:47;11.23;;;7.60;;
43152;SDS011;28756;49.064;9.290;2023-02-28T09:33:18;9.30;;;7.50;;
43152;SDS011;28756;49.064;9.290;2023-02-28T09:35:46;10.80;;;8.13;;
43152;SDS011;28756;49.064;9.290;2023-02-28T09:38:13;13.30;;;8.07;;
43152;SDS011;28756;49.064;9.290;2023-02-28T09:40:49;12.38;;;8.25;;
43152;SDS011;28756;49.064;9.290;2023-02-28T09:43:37;10.35;;;7.35;;
43152;SDS011;28756;49.064;9.290;2023-02-28T09:46:12;10.05;;;7.63;;
43152;SDS011;28756;49.064;9.290;2023-02-28T09:49:10;11.18;;;7.93;;
43152;SDS011;28756;49.064;9.290;2023-02-28T09:52:01;11.50;;;8.70;;
43152;SDS011;28756;49.064;9.290;2023-02-28T09:54:44;12.70;;;8.18;;
43152;SDS011;28756;49.064;9.290;2023-02-28T09:57:17;11.35;;;8.02;;
43152;SDS011;28756;49.064;9.290;2023-02-28T10:05:33;10.82;;;7.82;;
43152;SDS011;28756;49.064;9.290;2023-02-28T10:08:15;12.18;;;7.95;;
43152;SDS011;28756;49.064;9.290;2023-02-28T10:10:51;13.05;;;8.27;;
43152;SDS011;28756;49.064;9.290;2023-02-28T10:17:32;10.40;;;7.07;;
43152;SDS011;28756;49.064;9.290;2023-02-28T10:19:49;11.73;;;7.63;;
43152;SDS011;28756;49.064;9.290;2023-02-28T10:25:20;11.50;;;7.97;;
43152;SDS011;28756;49.064;9.290;2023-02-28T10:27:52;12.07;;;7.68;;
43152;SDS011;28756;49.064;9.290;2023-02-28T10:30:23;10.50;;;7.47;;
43152;SDS011;28756;49.064;9.290;2023-02-28T10:32:50;11.10;;;7.70;;
43152;SDS011;28756;49.064;9.290;2023-02-28T10:35:25;11.18;;;7.78;;
43152;SDS011;28756;49.064;9.290;2023-02-28T10:37:58;9.38;;;7.45;;
43152;SDS011;28756;49.064;9.290;2023-02-28T10:40:31;11.05;;;7.05;;
43152;SDS011;28756;49.064;9.290;2023-02-28T10:43:04;10.57;;;7.30;;
43152;SDS011;28756;49.064;9.290;2023-02-28T10:45:39;9.40;;;7.03;;
43152;SDS011;28756;49.064;9.290;2023-02-28T10:48:39;9.63;;;7.32;;
43152;SDS011;28756;49.064;9.290;2023-02-28T10:51:22;11.18;;;8.18;;
43152;SDS011;28756;49.064;9.290;2023-02-28T10:53:48;10.27;;;7.47;;
43152;SDS011;28756;49.064;9.290;2023-02-28T10:56:20;14.55;;;7.07;;
43152;SDS011;28756;49.064;9.290;2023-02-28T10:58:57;9.93;;;7.30;;
43152;SDS011;28756;49.064;9.290;2023-02-28T11:06:44;10.80;;;7.40;;
43152;SDS011;28756;49.064;9.290;2023-02-28T11:09:23;9.98;;;7.50;;
43152;SDS011;28756;49.064;9.290;2023-02-28T11:12:06;9.60;;;7.40;;
43152;SDS011;28756;49.064;9.290;2023-02-28T11:14:49;9.73;;;7.05;;
43152;SDS011;28756;49.064;9.290;2023-02-28T11:17:23;9.30;;;7.20;;
43152;SDS011;28756;49.064;9.290;2023-02-28T11:19:56;9.57;;;7.88;;
43152;SDS011;28756;49.064;9.290;2023-02-28T11:22:28;9.50;;;7.15;;
43152;SDS011;28756;49.064;9.290;2023-02-28T11:25:03;9.07;;;6.80;;
43152;SDS011;28756;49.064;9.290;2023-02-28T11:27:51;10.60;;;7.70;;
43152;SDS011;28756;49.064;9.290;2023-02-28T11:30:26;9.95;;;6.90;;
43152;SDS011;28756;49.064;9.290;2023-02-28T11:32:59;10.75;;;7.43;;
43152;SDS011;28756;49.064;9.290;2023-02-28T11:35:36;10.30;;;7.72;;
43152;SDS011;28756;49.064;9.290;2023-02-28T11:38:05;9.27;;;7.40;;
43152;SDS011;28756;49.064;9.290;2023-02-28T11:40:47;9.35;;;7.57;;
43152;SDS011;28756;49.064;9.290;2023-02-28T11:46:36;9.60;;;7.25;;
43152;SDS011;28756;49.064;9.290;2023-02-28T11:52:45;9.95;;;7.30;;
43152;SDS011;28756;49.064;9.290;2023-02-28T11:55:23;11.07;;;7.85;;
43152;SDS011;28756;49.064;9.290;2023-02-28T12:12:29;12.07;;;8.20;;
43152;SDS011;28756;49.064;9.290;2023-02-28T12:24:07;10.88;;;8.07;;
43152;SDS011;28756;49.064;9.290;2023-02-28T12:27:07;12.10;;;8.45;;
43152;SDS011;28756;49.064;9.290;2023-02-28T12:29:49;10.73;;;8.07;;
43152;SDS011;28756;49.064;9.290;2023-02-28T12:32:32;11.52;;;7.68;;
43152;SDS011;28756;49.064;9.290;2023-02-28T12:40:50;12.32;;;8.10;;
43152;SDS011;28756;49.064;9.290;2023-02-28T12:43:33;14.40;;;7.75;;
43152;SDS011;28756;49.064;9.290;2023-02-28T12:46:19;12.80;;;8.15;;
43152;SDS011;28756;49.064;9.290;2023-02-28T12:49:27;13.23;;;8.15;;
43152;SDS011;28756;49.064;9.290;2023-02-28T12:52:10;11.45;;;8.60;;
43152;SDS011;28756;49.064;9.290;2023-02-28T13:00:35;11.45;;;8.60;;
43152;SDS011;28756;49.064;9.290;2023-02-28T13:11:03;10.88;;;8.48;;
43152;SDS011;28756;49.064;9.290;2023-02-28T13:13:29;11.18;;;8.10;;
43152;SDS011;28756;49.064;9.290;2023-02-28T13:15:57;11.55;;;8.38;;
43152;SDS011;28756;49.064;9.290;2023-02-28T13:18:29;14.52;;;9.05;;
43152;SDS011;28756;49.064;9.290;2023-02-28T13:21:04;10.75;;;8.30;;
43152;SDS011;28756;49.064;9.290;2023-02-28T13:26:01;12.95;;;9.07;;
43152;SDS011;28756;49.064;9.290;2023-02-28T13:34:35;12.82;;;8.25;;
43152;SDS011;28756;49.064;9.290;2023-02-28T13:39:51;11.77;;;9.07;;
43152;SDS011;28756;49.064;9.290;2023-02-28T13:47:53;10.80;;;8.13;;
43152;SDS011;28756;49.064;9.290;2023-02-28T13:50:40;12.30;;;9.00;;
43152;SDS011;28756;49.064;9.290;2023-02-28T14:04:57;10.95;;;8.30;;
43152;SDS011;28756;49.064;9.290;2023-02-28T14:07:41;11.45;;;8.70;;
43152;SDS011;28756;49.064;9.290;2023-02-28T14:10:15;12.07;;;8.85;;
43152;SDS011;28756;49.064;9.290;2023-02-28T14:13:13;11.27;;;8.60;;
43152;SDS011;28756;49.064;9.290;2023-02-28T14:16:21;10.98;;;8.50;;
43152;SDS011;28756;49.064;9.290;2023-02-28T14:18:56;12.15;;;8.30;;
43152;SDS011;28756;49.064;9.290;2023-02-28T14:21:50;11.32;;;8.48;;
43152;SDS011;28756;49.064;9.290;2023-02-28T14:36:39;12.52;;;9.23;;
43152;SDS011;28756;49.064;9.290;2023-02-28T14:39:16;12.05;;;8.90;;
43152;SDS011;28756;49.064;9.290;2023-02-28T14:41:47;15.43;;;9.40;;
43152;SDS011;28756;49.064;9.290;2023-02-28T14:44:20;11.57;;;9.32;;
43152;SDS011;28756;49.064;9.290;2023-02-28T14:46:55;12.68;;;8.40;;
43152;SDS011;28756;49.064;9.290;2023-02-28T14:49:30;10.48;;;8.50;;
43152;SDS011;28756;49.064;9.290;2023-02-28T14:52:09;12.40;;;8.70;;
43152;SDS011;28756;49.064;9.290;2023-02-28T14:54:37;11.88;;;8.82;;
43152;SDS011;28756;49.064;9.290;2023-02-28T14:57:04;11.88;;;8.80;;
43152;SDS011;28756;49.064;9.290;2023-02-28T14:59:35;11.35;;;8.88;;
43152;SDS011;28756;49.064;9.290;2023-02-28T15:04:55;12.25;;;8.85;;
43152;SDS011;28756;49.064;9.290;2023-02-28T15:07:35;11.85;;;8.85;;
43152;SDS011;28756;49.064;9.290;2023-02-28T15:10:09;12.98;;;9.38;;
43152;SDS011;28756;49.064;9.290;2023-02-28T15:15:35;12.57;;;9.23;;
43152;SDS011;28756;49.064;9.290;2023-02-28T15:18:10;13.25;;;9.55;;
43152;SDS011;28756;49.064;9.290;2023-02-28T15:20:54;12.75;;;9.40;;
43152;SDS011;28756;49.064;9.290;2023-02-28T15:23:24;12.95;;;9.18;;
43152;SDS011;28756;49.064;9.290;2023-02-28T15:25:50;12.07;;;9.65;;
43152;SDS011;28756;49.064;9.290;2023-02-28T15:28:18;11.80;;;9.20;;
43152;SDS011;28756;49.064;9.290;2023-02-28T15:30:57;13.30;;;9.52;;
43152;SDS011;28756;49.064;9.290;2023-02-28T15:33:29;12.27;;;9.95;;
43152;SDS011;28756;49.064;9.290;2023-02-28T15:38:56;13.00;;;9.18;;
43152;SDS011;28756;49.064;9.290;2023-02-28T15:41:27;13.18;;;9.70;;
43152;SDS011;28756;49.064;9.290;2023-02-28T15:44:18;13.07;;;9.27;;
43152;SDS011;28756;49.064;9.290;2023-02-28T15:47:02;12.60;;;9.05;;
43152;SDS011;28756;49.064;9.290;2023-02-28T15:49:52;15.82;;;8.90;;
43152;SDS011;28756;49.064;9.290;2023-02-28T15:52:40;12.77;;;9.32;;
43152;SDS011;28756;49.064;9.290;2023-02-28T15:55:10;11.40;;;8.50;;
43152;SDS011;28756;49.064;9.290;2023-02-28T15:57:57;14.30;;;8.95;;
43152;SDS011;28756;49.064;9.290;2023-02-28T16:00:27;14.48;;;9.15;;
43152;SDS011;28756;49.064;9.290;2023-02-28T16:02:55;11.30;;;8.93;;
43152;SDS011;28756;49.064;9.290;2023-02-28T16:05:22;12.40;;;9.20;;
43152;SDS011;28756;49.064;9.290;2023-02-28T16:08:14;11.70;;;8.95;;
43152;SDS011;28756;49.064;9.290;2023-02-28T16:10:40;12.50;;;9.65;;
43152;SDS011;28756;49.064;9.290;2023-02-28T16:13:08;14.00;;;9.07;;
43152;SDS011;28756;49.064;9.290;2023-02-28T16:15:43;13.52;;;9.23;;
43152;SDS011;28756;49.064;9.290;2023-02-28T16:18:12;12.60;;;8.70;;
43152;SDS011;28756;49.064;9.290;2023-02-28T16:20:38;12.50;;;8.77;;
43152;SDS011;28756;49.064;9.290;2023-02-28T16:23:04;13.13;;;9.82;;
43152;SDS011;28756;49.064;9.290;2023-02-28T16:25:34;16.13;;;9.50;;
43152;SDS011;28756;49.064;9.290;2023-02-28T16:31:01;13.40;;;9.23;;
43152;SDS011;28756;49.064;9.290;2023-02-28T16:33:33;12.48;;;8.63;;
43152;SDS011;28756;49.064;9.290;2023-02-28T16:35:59;13.25;;;9.55;;
43152;SDS011;28756;49.064;9.290;2023-02-28T16:38:25;13.05;;;9.20;;
43152;SDS011;28756;49.064;9.290;2023-02-28T16:40:51;13.32;;;9.00;;
43152;SDS011;28756;49.064;9.290;2023-02-28T16:43:22;11.32;;;8.52;;
43152;SDS011;28756;49.064;9.290;2023-02-28T16:45:55;11.38;;;8.55;;
43152;SDS011;28756;49.064;9.290;2023-02-28T16:48:23;10.27;;;7.60;;
43152;SDS011;28756;49.064;9.290;2023-02-28T16:50:49;13.05;;;8.73;;
43152;SDS011;28756;49.064;9.290;2023-02-28T16:53:16;9.70;;;6.93;;
43152;SDS011;28756;49.064;9.290;2023-02-28T16:55:42;12.43;;;8.35;;
43152;SDS011;28756;49.064;9.290;2023-02-28T16:58:11;10.20;;;7.30;;
43152;SDS011;28756;49.064;9.290;2023-02-28T17:00:41;10.55;;;7.90;;
43152;SDS011;28756;49.064;9.290;2023-02-28T17:03:10;11.88;;;7.85;;
43152;SDS011;28756;49.064;9.290;2023-02-28T17:05:48;9.77;;;7.50;;
43152;SDS011;28756;49.064;9.290;2023-02-28T17:08:14;9.98;;;7.25;;
43152;SDS011;28756;49.064;9.290;2023-02-28T17:10:41;9.45;;;6.47;;
43152;SDS011;28756;49.064;9.290;2023-02-28T17:13:07;10.15;;;7.53;;
43152;SDS011;28756;49.064;9.290;2023-02-28T17:15:34;10.88;;;8.10;;
43152;SDS011;28756;49.064;9.290;2023-02-28T17:18:00;11.73;;;8.00;;
43152;SDS011;28756;49.064;9.290;2023-02-28T17:20:26;12.73;;;9.63;;
43152;SDS011;28756;49.064;9.290;2023-02-28T17:22:52;15.52;;;10.00;;
43152;SDS011;28756;49.064;9.290;2023-02-28T17:25:18;13.52;;;9.50;;
43152;SDS011;28756;49.064;9.290;2023-02-28T17:27:45;15.02;;;9.48;;
43152;SDS011;28756;49.064;9.290;2023-02-28T17:30:19;13.07;;;9.80;;
43152;SDS011;28756;49.064;9.290;2023-02-28T17:32:49;13.25;;;8.82;;
43152;SDS011;28756;49.064;9.290;2023-02-28T17:35:14;17.55;;;11.23;;
43152;SDS011;28756;49.064;9.290;2023-02-28T17:37:40;20.27;;;12.13;;
43152;SDS011;28756;49.064;9.290;2023-02-28T17:40:11;17.73;;;12.20;;
43152;SDS011;28756;49.064;9.290;2023-02-28T17:42:43;19.33;;;12.55;;
43152;SDS011;28756;49.064;9.290;2023-02-28T17:45:10;19.55;;;12.07;;